Terminal Aerodrome Forecast
Issued by NWS

Home | Current Version | Previous Version | Text Only | Print | Product List | Glossary On
Versions: 1 2 3 4 5 6 7 8 9 10 11 12 13 14 15 16 17 18 19 20 21 22
000
FTUS43 KAPX 012300
TAFTVC
TAF
KTVC 012320Z 0200/0224 16004KT P6SM SCT035 BKN200
     FM020800 16004KT 5SM -SHRA BR SCT015 OVC035
     FM021400 15006KT 5SM -SHRA BR OVC022=

USA.gov is the U.S. government's official web portal to all federal, state and local government web resources and services.